Ames, Spain
Current Conditions -  °F | °C
As of 1:00 PM on Saturday 20 Dec 2014 (Local Time) from LEST Reporting Station
Drizzle Drizzle  
Wind Chill: 52°   Ceiling: 100
Heat Index: 52°   Visibility: 0.68mi
Dew Point: 52°   Wind: 1mph
Humidity: 100%   Direction: NA
Pressure: 30.59"   Gusts: NA
Location:  42.9°N, 8.63°W
Report Text: LEST 201200Z VRB01KT 1100 R17/P2000 R35/1600D -DZ BR BKN001 OVC002 11/11 Q1036 NOSIG
Loading
Personal Weather Stations






























Interactive Weather Map New forecast layout! Learn more

10-Day Weather Forecast

Advertisements
Track Severe Weather on mobile